Terminal Aerodrome Forecast
Issued by NWS Charleston, WV

Current Version | Previous Version | Text Only | Print | Product List | Glossary Off
Versions: 1 2 3 4 5 6 7 8 9 10 11 12 13 14 15 16

384
FTUS41 KRLX 192339
TAFEKN
TAF
KEKN 192339Z 2000/2024 29008KT P6SM BKN035
     FM200800 31006KT 6SM BR SCT030
     FM201700 32008G14KT P6SM SKC=

USA.gov is the U.S. government's official web portal to all federal, state and local government web resources and services.